Terminal Aerodrome Forecast
Issued by NWS Upton, NY

Home | Current Version | Previous Version | Text Only | Print | Product List | Glossary On
Versions: 1 2 3 4 5 6 7 8 9 10 11 12 13 14 15 16 17 18 19 20 21 22 23 24 25 26 27 28
668
FTUS41 KOKX 241133
TAFLGA
TAF
KLGA 241133Z 2412/2512 33006KT 6SM -SHRA BR FEW020 BKN040
     FM241600 05005KT P6SM VCSH BKN050
     FM242100 16007KT P6SM VCSH FEW050 BKN080
     FM250000 26006KT P6SM SCT120=

USA.gov is the U.S. government's official web portal to all federal, state and local government web resources and services.